sensor_id;sensor_type;location;lat;lon;timestamp;pressure;altitude;pressure_sealevel;temperature;humidity
47556;BME280;33291;46.222;26.460;2023-12-22T00:01:14;94359.38;;;2.97;67.40
47556;BME280;33291;46.222;26.460;2023-12-22T00:03:43;94348.28;;;2.97;67.00
47556;BME280;33291;46.222;26.460;2023-12-22T00:06:11;94358.00;;;3.03;67.59
47556;BME280;33291;46.222;26.460;2023-12-22T00:08:37;94358.66;;;3.05;66.49
47556;BME280;33291;46.222;26.460;2023-12-22T00:11:02;94345.88;;;2.95;67.61
47556;BME280;33291;46.222;26.460;2023-12-22T00:13:29;94350.44;;;3.01;67.61
47556;BME280;33291;46.222;26.460;2023-12-22T00:15:54;94332.66;;;2.90;67.91
47556;BME280;33291;46.222;26.460;2023-12-22T00:18:20;94336.38;;;2.96;67.96
47556;BME280;33291;46.222;26.460;2023-12-22T00:20:45;94338.16;;;2.95;68.88
47556;BME280;33291;46.222;26.460;2023-12-22T00:23:11;94337.09;;;2.88;69.69
47556;BME280;33291;46.222;26.460;2023-12-22T00:25:36;94333.53;;;2.81;69.73
47556;BME280;33291;46.222;26.460;2023-12-22T00:28:02;94324.06;;;2.72;70.87
47556;BME280;33291;46.222;26.460;2023-12-22T00:30:28;94309.66;;;2.61;70.78
47556;BME280;33291;46.222;26.460;2023-12-22T00:32:54;94319.22;;;2.69;70.99
47556;BME280;33291;46.222;26.460;2023-12-22T00:35:19;94304.66;;;2.59;71.50
47556;BME280;33291;46.222;26.460;2023-12-22T00:37:45;94306.28;;;2.60;73.52
47556;BME280;33291;46.222;26.460;2023-12-22T00:40:10;94298.50;;;2.52;73.94
47556;BME280;33291;46.222;26.460;2023-12-22T00:42:36;94292.31;;;2.45;74.63
47556;BME280;33291;46.222;26.460;2023-12-22T00:45:02;94286.47;;;2.43;75.40
47556;BME280;33291;46.222;26.460;2023-12-22T00:47:28;94288.03;;;2.36;76.48
47556;BME280;33291;46.222;26.460;2023-12-22T00:49:53;94268.63;;;2.23;76.95
47556;BME280;33291;46.222;26.460;2023-12-22T00:52:19;94270.13;;;2.16;78.00
47556;BME280;33291;46.222;26.460;2023-12-22T00:54:44;94270.13;;;2.16;76.09
47556;BME280;33291;46.222;26.460;2023-12-22T00:57:10;94259.19;;;2.14;76.80
47556;BME280;33291;46.222;26.460;2023-12-22T00:59:36;94271.06;;;2.15;77.85
47556;BME280;33291;46.222;26.460;2023-12-22T01:02:02;94265.28;;;2.13;77.83
47556;BME280;33291;46.222;26.460;2023-12-22T01:04:27;94261.22;;;2.10;77.45
47556;BME280;33291;46.222;26.460;2023-12-22T01:06:53;94260.00;;;2.15;77.13
47556;BME280;33291;46.222;26.460;2023-12-22T01:09:18;94250.81;;;2.12;76.81
47556;BME280;33291;46.222;26.460;2023-12-22T01:11:45;94249.31;;;2.19;76.55
47556;BME280;33291;46.222;26.460;2023-12-22T01:14:11;94258.09;;;2.17;76.33
47556;BME280;33291;46.222;26.460;2023-12-22T01:16:39;94240.25;;;2.15;76.19
47556;BME280;33291;46.222;26.460;2023-12-22T01:19:04;94232.03;;;2.11;76.04
47556;BME280;33291;46.222;26.460;2023-12-22T01:21:30;94248.25;;;2.12;75.49
47556;BME280;33291;46.222;26.460;2023-12-22T01:23:56;94240.53;;;2.12;75.70
47556;BME280;33291;46.222;26.460;2023-12-22T01:26:24;94228.34;;;2.14;75.66
47556;BME280;33291;46.222;26.460;2023-12-22T01:28:49;94235.13;;;2.15;75.95
47556;BME280;33291;46.222;26.460;2023-12-22T01:31:15;94222.56;;;2.12;75.52
47556;BME280;33291;46.222;26.460;2023-12-22T01:33:40;94219.72;;;2.15;75.39
47556;BME280;33291;46.222;26.460;2023-12-22T01:36:06;94217.28;;;2.13;76.15
47556;BME280;33291;46.222;26.460;2023-12-22T01:38:31;94208.94;;;2.11;76.21
47556;BME280;33291;46.222;26.460;2023-12-22T01:40:57;94209.06;;;2.10;76.31
47556;BME280;33291;46.222;26.460;2023-12-22T01:43:22;94198.25;;;2.06;76.46
47556;BME280;33291;46.222;26.460;2023-12-22T01:45:52;94191.38;;;2.07;76.40
47556;BME280;33291;46.222;26.460;2023-12-22T01:48:21;94183.69;;;2.07;76.69
47556;BME280;33291;46.222;26.460;2023-12-22T01:50:49;94177.91;;;1.95;77.30
47556;BME280;33291;46.222;26.460;2023-12-22T01:53:16;94185.06;;;2.01;78.12
47556;BME280;33291;46.222;26.460;2023-12-22T01:55:42;94177.41;;;1.91;78.88
47556;BME280;33291;46.222;26.460;2023-12-22T01:58:08;94180.63;;;1.93;78.91
47556;BME280;33291;46.222;26.460;2023-12-22T02:00:34;94182.53;;;1.91;79.03
47556;BME280;33291;46.222;26.460;2023-12-22T02:02:59;94157.41;;;1.85;78.53
47556;BME280;33291;46.222;26.460;2023-12-22T02:05:25;94155.00;;;1.84;78.31
47556;BME280;33291;46.222;26.460;2023-12-22T02:07:51;94159.72;;;1.88;79.04
47556;BME280;33291;46.222;26.460;2023-12-22T02:10:16;94166.75;;;1.86;79.24
47556;BME280;33291;46.222;26.460;2023-12-22T02:12:42;94167.59;;;1.77;79.14
47556;BME280;33291;46.222;26.460;2023-12-22T02:15:08;94154.69;;;1.69;79.75
47556;BME280;33291;46.222;26.460;2023-12-22T02:20:29;94160.84;;;1.76;77.12
47556;BME280;33291;46.222;26.460;2023-12-22T02:22:55;94159.63;;;1.80;76.64
47556;BME280;33291;46.222;26.460;2023-12-22T02:25:21;94169.59;;;1.83;76.33
47556;BME280;33291;46.222;26.460;2023-12-22T02:28:02;94156.41;;;1.78;79.00
47556;BME280;33291;46.222;26.460;2023-12-22T02:33:15;94152.84;;;1.79;77.34
47556;BME280;33291;46.222;26.460;2023-12-22T02:35:42;94145.56;;;1.84;79.16
47556;BME280;33291;46.222;26.460;2023-12-22T02:38:10;94140.72;;;1.81;78.80
47556;BME280;33291;46.222;26.460;2023-12-22T02:40:37;94135.31;;;1.74;76.88
47556;BME280;33291;46.222;26.460;2023-12-22T02:43:05;94130.75;;;1.68;78.05
47556;BME280;33291;46.222;26.460;2023-12-22T02:45:31;94130.03;;;1.76;78.97
47556;BME280;33291;46.222;26.460;2023-12-22T02:47:57;94124.53;;;1.71;77.82
47556;BME280;33291;46.222;26.460;2023-12-22T02:50:23;94128.72;;;1.72;78.01
47556;BME280;33291;46.222;26.460;2023-12-22T02:52:49;94134.22;;;1.77;77.73
47556;BME280;33291;46.222;26.460;2023-12-22T02:55:14;94141.78;;;1.78;77.01
47556;BME280;33291;46.222;26.460;2023-12-22T02:57:40;94126.38;;;1.78;78.34
47556;BME280;33291;46.222;26.460;2023-12-22T03:00:06;94119.59;;;1.87;78.18
47556;BME280;33291;46.222;26.460;2023-12-22T03:02:32;94110.94;;;1.88;77.70
47556;BME280;33291;46.222;26.460;2023-12-22T03:04:57;94125.50;;;1.98;74.73
47556;BME280;33291;46.222;26.460;2023-12-22T03:07:23;94114.50;;;2.23;72.05
47556;BME280;33291;46.222;26.460;2023-12-22T03:09:49;94119.75;;;2.40;70.28
47556;BME280;33291;46.222;26.460;2023-12-22T03:12:14;94130.19;;;2.56;69.16
47556;BME280;33291;46.222;26.460;2023-12-22T03:14:40;94112.03;;;2.76;66.20
47556;BME280;33291;46.222;26.460;2023-12-22T03:17:06;94090.69;;;3.10;63.68
47556;BME280;33291;46.222;26.460;2023-12-22T03:19:32;94129.72;;;3.58;62.12
47556;BME280;33291;46.222;26.460;2023-12-22T03:21:58;94110.50;;;3.78;61.13
47556;BME280;33291;46.222;26.460;2023-12-22T03:24:25;94122.03;;;4.08;59.74
47556;BME280;33291;46.222;26.460;2023-12-22T03:26:51;94111.72;;;4.17;59.81
47556;BME280;33291;46.222;26.460;2023-12-22T03:29:17;94120.44;;;4.24;59.83
47556;BME280;33291;46.222;26.460;2023-12-22T03:31:44;94103.19;;;4.33;59.35
47556;BME280;33291;46.222;26.460;2023-12-22T03:34:09;94109.69;;;4.45;59.01
47556;BME280;33291;46.222;26.460;2023-12-22T03:36:35;94086.31;;;4.47;58.49
47556;BME280;33291;46.222;26.460;2023-12-22T03:39:00;94084.38;;;4.49;58.90
47556;BME280;33291;46.222;26.460;2023-12-22T03:41:26;94080.00;;;4.49;58.70
47556;BME280;33291;46.222;26.460;2023-12-22T03:43:52;94079.84;;;4.51;58.94
47556;BME280;33291;46.222;26.460;2023-12-22T03:46:17;94083.72;;;4.55;58.74
47556;BME280;33291;46.222;26.460;2023-12-22T03:48:44;94081.16;;;4.55;59.11
47556;BME280;33291;46.222;26.460;2023-12-22T03:51:09;94069.22;;;4.54;58.75
47556;BME280;33291;46.222;26.460;2023-12-22T03:53:37;94076.16;;;4.53;59.27
47556;BME280;33291;46.222;26.460;2023-12-22T03:56:03;94068.09;;;4.56;59.54
47556;BME280;33291;46.222;26.460;2023-12-22T03:58:29;94063.75;;;4.57;59.90
47556;BME280;33291;46.222;26.460;2023-12-22T04:00:56;94051.66;;;4.49;60.65
47556;BME280;33291;46.222;26.460;2023-12-22T04:03:22;94049.56;;;4.61;60.99
47556;BME280;33291;46.222;26.460;2023-12-22T04:05:47;94042.16;;;4.58;61.21
47556;BME280;33291;46.222;26.460;2023-12-22T04:08:13;94042.31;;;4.56;61.97
47556;BME280;33291;46.222;26.460;2023-12-22T04:10:38;94035.69;;;4.54;62.44
47556;BME280;33291;46.222;26.460;2023-12-22T04:13:04;94037.66;;;4.52;62.91
47556;BME280;33291;46.222;26.460;2023-12-22T04:15:29;94037.66;;;4.52;63.01
47556;BME280;33291;46.222;26.460;2023-12-22T04:17:55;94036.84;;;4.59;63.11
47556;BME280;33291;46.222;26.460;2023-12-22T04:20:20;94040.06;;;4.53;63.30
47556;BME280;33291;46.222;26.460;2023-12-22T04:22:46;94043.75;;;4.51;63.68
47556;BME280;33291;46.222;26.460;2023-12-22T04:25:11;94032.50;;;4.52;64.16
47556;BME280;33291;46.222;26.460;2023-12-22T04:27:37;94034.75;;;4.47;64.62
47556;BME280;33291;46.222;26.460;2023-12-22T04:30:02;94028.00;;;4.45;64.72
47556;BME280;33291;46.222;26.460;2023-12-22T04:32:28;94038.31;;;4.45;65.37
47556;BME280;33291;46.222;26.460;2023-12-22T04:34:53;94023.78;;;4.44;65.74
47556;BME280;33291;46.222;26.460;2023-12-22T04:37:19;94022.19;;;4.52;65.63
47556;BME280;33291;46.222;26.460;2023-12-22T04:39:45;94014.13;;;4.47;66.07
47556;BME280;33291;46.222;26.460;2023-12-22T04:42:10;94018.97;;;4.41;66.62
47556;BME280;33291;46.222;26.460;2023-12-22T04:44:36;94017.97;;;4.51;66.73
47556;BME280;33291;46.222;26.460;2023-12-22T04:47:01;94016.22;;;4.51;66.91
47556;BME280;33291;46.222;26.460;2023-12-22T04:49:27;94020.09;;;4.47;67.51
47556;BME280;33291;46.222;26.460;2023-12-22T04:51:52;94017.50;;;4.47;67.52
47556;BME280;33291;46.222;26.460;2023-12-22T04:54:18;94020.56;;;4.51;67.64
47556;BME280;33291;46.222;26.460;2023-12-22T04:56:43;94028.63;;;4.48;67.69
47556;BME280;33291;46.222;26.460;2023-12-22T04:59:09;94026.03;;;4.48;68.02
47556;BME280;33291;46.222;26.460;2023-12-22T05:01:35;94029.28;;;4.41;68.79
47556;BME280;33291;46.222;26.460;2023-12-22T05:04:00;94024.13;;;4.41;69.12
47556;BME280;33291;46.222;26.460;2023-12-22T05:06:27;94032.00;;;4.40;69.17
47556;BME280;33291;46.222;26.460;2023-12-22T05:08:54;94032.50;;;4.43;68.99
47556;BME280;33291;46.222;26.460;2023-12-22T05:11:20;94033.31;;;4.44;69.26
47556;BME280;33291;46.222;26.460;2023-12-22T05:13:45;94017.84;;;4.36;69.25
47556;BME280;33291;46.222;26.460;2023-12-22T05:16:11;94006.72;;;4.35;69.46
47556;BME280;33291;46.222;26.460;2023-12-22T05:18:36;94012.53;;;4.37;69.93
47556;BME280;33291;46.222;26.460;2023-12-22T05:21:02;94016.06;;;4.36;70.06
47556;BME280;33291;46.222;26.460;2023-12-22T05:23:28;94004.66;;;4.39;69.98
47556;BME280;33291;46.222;26.460;2023-12-22T05:25:53;94011.56;;;4.38;69.83
47556;BME280;33291;46.222;26.460;2023-12-22T05:28:19;94006.06;;;4.41;69.34
47556;BME280;33291;46.222;26.460;2023-12-22T05:30:45;94013.81;;;4.41;69.46
47556;BME280;33291;46.222;26.460;2023-12-22T05:33:10;93992.72;;;4.38;69.50
47556;BME280;33291;46.222;26.460;2023-12-22T05:35:36;93993.84;;;4.43;69.53
47556;BME280;33291;46.222;26.460;2023-12-22T05:38:02;93996.41;;;4.43;69.84
47556;BME280;33291;46.222;26.460;2023-12-22T05:40:27;93984.50;;;4.42;69.50
47556;BME280;33291;46.222;26.460;2023-12-22T05:42:53;93982.53;;;4.44;69.26
47556;BME280;33291;46.222;26.460;2023-12-22T05:45:18;93972.91;;;4.47;68.56
47556;BME280;33291;46.222;26.460;2023-12-22T05:47:44;93984.16;;;4.45;68.79
47556;BME280;33291;46.222;26.460;2023-12-22T05:50:09;93975.47;;;4.47;68.56
47556;BME280;33291;46.222;26.460;2023-12-22T05:52:36;93985.47;;;4.50;67.87
47556;BME280;33291;46.222;26.460;2023-12-22T05:55:01;93989.47;;;4.52;67.92
47556;BME280;33291;46.222;26.460;2023-12-22T05:57:27;93988.50;;;4.53;67.52
47556;BME280;33291;46.222;26.460;2023-12-22T05:59:53;93998.50;;;4.56;67.44
47556;BME280;33291;46.222;26.460;2023-12-22T06:02:19;93998.50;;;4.56;67.72
47556;BME280;33291;46.222;26.460;2023-12-22T06:04:44;93994.94;;;4.49;68.05
47556;BME280;33291;46.222;26.460;2023-12-22T06:07:10;94002.84;;;4.56;68.10
47556;BME280;33291;46.222;26.460;2023-12-22T06:09:36;93990.28;;;4.53;68.33
47556;BME280;33291;46.222;26.460;2023-12-22T06:12:02;93988.97;;;4.57;68.56
47556;BME280;33291;46.222;26.460;2023-12-22T06:14:28;93983.50;;;4.60;68.51
47556;BME280;33291;46.222;26.460;2023-12-22T06:16:54;93989.47;;;4.60;68.30
47556;BME280;33291;46.222;26.460;2023-12-22T06:19:22;93968.19;;;4.58;68.09
47556;BME280;33291;46.222;26.460;2023-12-22T06:21:49;93974.47;;;4.64;68.09
47556;BME280;33291;46.222;26.460;2023-12-22T06:24:15;93979.47;;;4.66;68.35
47556;BME280;33291;46.222;26.460;2023-12-22T06:26:41;93981.88;;;4.67;68.66
47556;BME280;33291;46.222;26.460;2023-12-22T06:29:07;93968.81;;;4.69;68.67
47556;BME280;33291;46.222;26.460;2023-12-22T06:31:33;93978.34;;;4.68;69.83
47556;BME280;33291;46.222;26.460;2023-12-22T06:33:58;93956.78;;;4.53;70.14
47556;BME280;33291;46.222;26.460;2023-12-22T06:36:27;93974.50;;;4.56;70.45
47556;BME280;33291;46.222;26.460;2023-12-22T06:38:53;93962.22;;;4.58;70.89
47556;BME280;33291;46.222;26.460;2023-12-22T06:41:27;93965.31;;;4.53;71.72
47556;BME280;33291;46.222;26.460;2023-12-22T06:43:54;93959.50;;;4.51;71.44
47556;BME280;33291;46.222;26.460;2023-12-22T06:46:22;93950.97;;;4.51;72.00
47556;BME280;33291;46.222;26.460;2023-12-22T06:48:48;93936.16;;;4.44;72.32
47556;BME280;33291;46.222;26.460;2023-12-22T06:51:24;93936.97;;;4.45;72.11
47556;BME280;33291;46.222;26.460;2023-12-22T06:53:56;93931.81;;;4.45;72.20
47556;BME280;33291;46.222;26.460;2023-12-22T06:56:23;93940.19;;;4.47;72.04
47556;BME280;33291;46.222;26.460;2023-12-22T06:58:51;93925.19;;;4.51;71.93
47556;BME280;33291;46.222;26.460;2023-12-22T07:03:48;93913.28;;;4.50;72.19
47556;BME280;33291;46.222;26.460;2023-12-22T07:06:15;93916.03;;;4.48;71.77
47556;BME280;33291;46.222;26.460;2023-12-22T07:08:41;93918.28;;;4.51;71.74
47556;BME280;33291;46.222;26.460;2023-12-22T07:11:10;93900.72;;;4.47;71.87
47556;BME280;33291;46.222;26.460;2023-12-22T07:13:37;93903.44;;;4.53;71.82
47556;BME280;33291;46.222;26.460;2023-12-22T07:16:06;93883.28;;;4.57;71.54
47556;BME280;33291;46.222;26.460;2023-12-22T07:18:32;93887.63;;;4.56;72.01
47556;BME280;33291;46.222;26.460;2023-12-22T07:20:58;93888.59;;;4.63;71.56
47556;BME280;33291;46.222;26.460;2023-12-22T07:23:24;93888.44;;;4.57;71.94
47556;BME280;33291;46.222;26.460;2023-12-22T07:25:49;93889.59;;;4.54;72.09
47556;BME280;33291;46.222;26.460;2023-12-22T07:28:15;93895.53;;;4.55;72.24
47556;BME280;33291;46.222;26.460;2023-12-22T07:30:43;93896.50;;;4.54;72.51
47556;BME280;33291;46.222;26.460;2023-12-22T07:33:09;93902.31;;;4.56;72.52
47556;BME280;33291;46.222;26.460;2023-12-22T07:35:34;93915.81;;;4.58;72.21
47556;BME280;33291;46.222;26.460;2023-12-22T07:38:00;93907.47;;;4.56;72.19
47556;BME280;33291;46.222;26.460;2023-12-22T07:40:28;93910.53;;;4.51;72.30
47556;BME280;33291;46.222;26.460;2023-12-22T07:42:56;93922.59;;;4.59;72.17
47556;BME280;33291;46.222;26.460;2023-12-22T07:45:21;93915.19;;;4.56;72.32
47556;BME280;33291;46.222;26.460;2023-12-22T07:47:47;93906.13;;;4.60;72.57
47556;BME280;33291;46.222;26.460;2023-12-22T07:50:13;93923.56;;;4.66;72.96
47556;BME280;33291;46.222;26.460;2023-12-22T07:52:38;93928.38;;;4.69;73.08
47556;BME280;33291;46.222;26.460;2023-12-22T07:55:08;93922.06;;;4.72;73.74
47556;BME280;33291;46.222;26.460;2023-12-22T07:57:38;93922.56;;;4.75;74.11
47556;BME280;33291;46.222;26.460;2023-12-22T08:00:04;93924.81;;;4.78;73.53
47556;BME280;33291;46.222;26.460;2023-12-22T08:02:30;93934.44;;;4.85;74.52
47556;BME280;33291;46.222;26.460;2023-12-22T08:04:55;93963.44;;;4.87;74.15
47556;BME280;33291;46.222;26.460;2023-12-22T08:07:21;93941.03;;;4.87;73.54
47556;BME280;33291;46.222;26.460;2023-12-22T08:09:46;93955.66;;;4.95;73.98
47556;BME280;33291;46.222;26.460;2023-12-22T08:12:12;93947.94;;;4.95;72.51
47556;BME280;33291;46.222;26.460;2023-12-22T08:14:37;93927.47;;;4.93;72.95
47556;BME280;33291;46.222;26.460;2023-12-22T08:17:03;93927.28;;;4.95;72.82
47556;BME280;33291;46.222;26.460;2023-12-22T08:19:29;93911.69;;;4.96;73.20
47556;BME280;33291;46.222;26.460;2023-12-22T08:21:54;93900.53;;;4.96;72.54
47556;BME280;33291;46.222;26.460;2023-12-22T08:24:21;93899.25;;;5.00;73.03
47556;BME280;33291;46.222;26.460;2023-12-22T08:26:46;93890.88;;;4.98;73.63
47556;BME280;33291;46.222;26.460;2023-12-22T08:29:12;93877.50;;;4.94;73.48
47556;BME280;33291;46.222;26.460;2023-12-22T08:31:37;93873.13;;;4.95;73.55
47556;BME280;33291;46.222;26.460;2023-12-22T08:34:03;93863.78;;;4.94;73.94
47556;BME280;33291;46.222;26.460;2023-12-22T08:36:28;93857.03;;;4.93;74.08
47556;BME280;33291;46.222;26.460;2023-12-22T08:38:54;93858.13;;;4.98;73.48
47556;BME280;33291;46.222;26.460;2023-12-22T08:41:20;93833.00;;;4.92;73.33
47556;BME280;33291;46.222;26.460;2023-12-22T08:43:45;93826.06;;;4.93;70.95
47556;BME280;33291;46.222;26.460;2023-12-22T08:46:11;93827.69;;;4.94;71.30
47556;BME280;33291;46.222;26.460;2023-12-22T08:48:37;93829.25;;;5.03;71.01
47556;BME280;33291;46.222;26.460;2023-12-22T08:51:03;93816.63;;;5.08;71.11
47556;BME280;33291;46.222;26.460;2023-12-22T08:53:29;93813.00;;;5.18;68.64
47556;BME280;33291;46.222;26.460;2023-12-22T08:55:59;93822.78;;;5.30;66.99
47556;BME280;33291;46.222;26.460;2023-12-22T08:58:25;93821.16;;;5.29;65.68
47556;BME280;33291;46.222;26.460;2023-12-22T09:00:51;93803.06;;;5.38;64.51
47556;BME280;33291;46.222;26.460;2023-12-22T09:03:16;93815.78;;;5.39;64.96
47556;BME280;33291;46.222;26.460;2023-12-22T09:05:42;93810.72;;;5.46;64.33
47556;BME280;33291;46.222;26.460;2023-12-22T09:08:07;93783.75;;;5.48;64.40
47556;BME280;33291;46.222;26.460;2023-12-22T09:10:33;93782.06;;;5.41;64.21
47556;BME280;33291;46.222;26.460;2023-12-22T09:12:58;93784.47;;;5.42;64.30
47556;BME280;33291;46.222;26.460;2023-12-22T09:15:25;93806.44;;;5.38;64.81
47556;BME280;33291;46.222;26.460;2023-12-22T09:17:52;93804.19;;;5.35;65.16
47556;BME280;33291;46.222;26.460;2023-12-22T09:20:18;93815.56;;;5.26;65.42
47556;BME280;33291;46.222;26.460;2023-12-22T09:22:44;93815.22;;;5.29;65.96
47556;BME280;33291;46.222;26.460;2023-12-22T09:25:09;93828.50;;;5.18;66.86
47556;BME280;33291;46.222;26.460;2023-12-22T09:27:35;93866.81;;;5.06;67.37
47556;BME280;33291;46.222;26.460;2023-12-22T09:30:00;93814.69;;;5.10;68.04
47556;BME280;33291;46.222;26.460;2023-12-22T09:32:26;93819.53;;;5.05;68.27
47556;BME280;33291;46.222;26.460;2023-12-22T09:34:52;93838.25;;;5.07;68.99
47556;BME280;33291;46.222;26.460;2023-12-22T09:37:18;93777.75;;;4.87;68.85
47556;BME280;33291;46.222;26.460;2023-12-22T09:39:43;93837.31;;;5.00;69.38
47556;BME280;33291;46.222;26.460;2023-12-22T09:42:09;93855.22;;;5.02;69.49
47556;BME280;33291;46.222;26.460;2023-12-22T09:44:36;93837.00;;;4.95;69.59
47556;BME280;33291;46.222;26.460;2023-12-22T09:47:04;93827.19;;;4.90;70.04
47556;BME280;33291;46.222;26.460;2023-12-22T09:49:33;93827.19;;;4.90;70.57
47556;BME280;33291;46.222;26.460;2023-12-22T09:51:59;93831.44;;;4.83;70.58
47556;BME280;33291;46.222;26.460;2023-12-22T09:54:29;93793.72;;;4.82;70.48
47556;BME280;33291;46.222;26.460;2023-12-22T09:56:56;93822.56;;;4.86;70.46
47556;BME280;33291;46.222;26.460;2023-12-22T09:59:22;93858.38;;;4.80;71.35
47556;BME280;33291;46.222;26.460;2023-12-22T10:01:50;93844.34;;;4.83;71.22
47556;BME280;33291;46.222;26.460;2023-12-22T10:04:18;93834.53;;;4.78;70.85
47556;BME280;33291;46.222;26.460;2023-12-22T10:06:44;93836.94;;;4.80;70.72
47556;BME280;33291;46.222;26.460;2023-12-22T10:09:12;93844.84;;;4.78;71.11
47556;BME280;33291;46.222;26.460;2023-12-22T10:11:40;93848.41;;;4.77;71.06
47556;BME280;33291;46.222;26.460;2023-12-22T10:14:09;93900.75;;;4.78;71.03
47556;BME280;33291;46.222;26.460;2023-12-22T10:16:38;93870.00;;;4.76;70.79
47556;BME280;33291;46.222;26.460;2023-12-22T10:19:05;93890.59;;;4.85;70.36
47556;BME280;33291;46.222;26.460;2023-12-22T10:21:31;93873.16;;;4.87;69.89
47556;BME280;33291;46.222;26.460;2023-12-22T10:23:57;93845.25;;;4.90;70.03
47556;BME280;33291;46.222;26.460;2023-12-22T10:26:23;93833.94;;;5.00;69.17
47556;BME280;33291;46.222;26.460;2023-12-22T10:28:48;93827.44;;;5.04;69.15
47556;BME280;33291;46.222;26.460;2023-12-22T10:31:14;93821.16;;;5.06;68.54
47556;BME280;33291;46.222;26.460;2023-12-22T10:33:40;93813.25;;;5.08;68.20
47556;BME280;33291;46.222;26.460;2023-12-22T10:36:07;93826.94;;;5.08;68.30
47556;BME280;33291;46.222;26.460;2023-12-22T10:38:33;93824.66;;;5.13;67.41
47556;BME280;33291;46.222;26.460;2023-12-22T10:41:01;93829.41;;;5.25;67.26
47556;BME280;33291;46.222;26.460;2023-12-22T10:43:27;93848.78;;;5.21;67.07
47556;BME280;33291;46.222;26.460;2023-12-22T10:45:52;93837.34;;;5.23;66.92
47556;BME280;33291;46.222;26.460;2023-12-22T10:48:18;93864.28;;;5.21;66.00
47556;BME280;33291;46.222;26.460;2023-12-22T10:50:44;93854.88;;;5.28;66.45
47556;BME280;33291;46.222;26.460;2023-12-22T10:53:12;93874.91;;;5.26;66.40
47556;BME280;33291;46.222;26.460;2023-12-22T10:55:38;93847.22;;;5.20;66.90
47556;BME280;33291;46.222;26.460;2023-12-22T10:58:03;93854.47;;;5.16;66.72
47556;BME280;33291;46.222;26.460;2023-12-22T11:00:32;93867.03;;;5.19;67.11
47556;BME280;33291;46.222;26.460;2023-12-22T11:03:01;93887.84;;;5.18;66.53
47556;BME280;33291;46.222;26.460;2023-12-22T11:05:29;93889.47;;;5.19;67.14
47556;BME280;33291;46.222;26.460;2023-12-22T11:07:59;93891.25;;;5.18;68.40
47556;BME280;33291;46.222;26.460;2023-12-22T11:10:27;93890.66;;;5.08;69.76
47556;BME280;33291;46.222;26.460;2023-12-22T11:12:57;93903.25;;;5.03;72.28
47556;BME280;33291;46.222;26.460;2023-12-22T11:15:24;93908.44;;;4.94;73.12
47556;BME280;33291;46.222;26.460;2023-12-22T11:17:51;93912.69;;;4.79;74.37
47556;BME280;33291;46.222;26.460;2023-12-22T11:20:17;93924.47;;;4.73;75.78
47556;BME280;33291;46.222;26.460;2023-12-22T11:22:44;93945.31;;;4.63;78.39
47556;BME280;33291;46.222;26.460;2023-12-22T11:25:10;93954.03;;;4.54;78.38
47556;BME280;33291;46.222;26.460;2023-12-22T11:27:37;93955.19;;;4.35;78.95
47556;BME280;33291;46.222;26.460;2023-12-22T11:30:04;93982.56;;;4.36;81.08
47556;BME280;33291;46.222;26.460;2023-12-22T11:32:34;94004.47;;;4.32;82.73
47556;BME280;33291;46.222;26.460;2023-12-22T11:34:59;93966.94;;;4.21;78.18
47556;BME280;33291;46.222;26.460;2023-12-22T11:37:25;93954.88;;;4.14;76.12
47556;BME280;33291;46.222;26.460;2023-12-22T11:39:51;93959.25;;;4.13;76.78
47556;BME280;33291;46.222;26.460;2023-12-22T11:42:26;93947.31;;;4.04;77.09
47556;BME280;33291;46.222;26.460;2023-12-22T11:44:53;93946.03;;;4.00;79.55
47556;BME280;33291;46.222;26.460;2023-12-22T11:47:22;93957.94;;;3.92;75.96
47556;BME280;33291;46.222;26.460;2023-12-22T11:49:49;93929.75;;;4.07;74.95
47556;BME280;33291;46.222;26.460;2023-12-22T11:52:18;93910.13;;;4.15;75.02
47556;BME280;33291;46.222;26.460;2023-12-22T11:54:51;93903.44;;;4.53;76.03
47556;BME280;33291;46.222;26.460;2023-12-22T11:57:35;93894.16;;;4.84;63.42
47556;BME280;33291;46.222;26.460;2023-12-22T12:00:09;93908.53;;;5.09;57.19
47556;BME280;33291;46.222;26.460;2023-12-22T12:02:37;93913.22;;;5.37;58.48
47556;BME280;33291;46.222;26.460;2023-12-22T12:05:05;93896.16;;;5.59;54.08
47556;BME280;33291;46.222;26.460;2023-12-22T12:07:38;93895.22;;;5.75;53.08
47556;BME280;33291;46.222;26.460;2023-12-22T12:10:08;93881.25;;;5.84;53.21
47556;BME280;33291;46.222;26.460;2023-12-22T12:12:34;93865.75;;;5.84;53.38
47556;BME280;33291;46.222;26.460;2023-12-22T12:15:07;93880.81;;;6.04;51.90
47556;BME280;33291;46.222;26.460;2023-12-22T12:17:33;93878.56;;;6.24;53.21
47556;BME280;33291;46.222;26.460;2023-12-22T12:20:05;93867.31;;;6.32;50.79
47556;BME280;33291;46.222;26.460;2023-12-22T12:22:31;93913.69;;;6.48;50.74
47556;BME280;33291;46.222;26.460;2023-12-22T12:24:56;93896.22;;;6.50;49.22
47556;BME280;33291;46.222;26.460;2023-12-22T12:27:22;93899.53;;;6.59;49.47
47556;BME280;33291;46.222;26.460;2023-12-22T12:29:48;93848.97;;;6.56;50.24
47556;BME280;33291;46.222;26.460;2023-12-22T12:32:16;93895.50;;;6.86;48.50
47556;BME280;33291;46.222;26.460;2023-12-22T12:34:43;93894.63;;;6.79;49.16
47556;BME280;33291;46.222;26.460;2023-12-22T12:37:09;93892.47;;;6.68;48.94
47556;BME280;33291;46.222;26.460;2023-12-22T12:39:35;93916.19;;;6.56;49.23
47556;BME280;33291;46.222;26.460;2023-12-22T12:42:06;93908.84;;;6.45;48.87
47556;BME280;33291;46.222;26.460;2023-12-22T12:44:33;93917.22;;;6.17;49.33
47556;BME280;33291;46.222;26.460;2023-12-22T12:47:11;93922.06;;;5.97;50.22
47556;BME280;33291;46.222;26.460;2023-12-22T12:49:37;93913.78;;;5.79;51.22
47556;BME280;33291;46.222;26.460;2023-12-22T12:52:02;93919.34;;;5.67;52.17
47556;BME280;33291;46.222;26.460;2023-12-22T12:54:28;93885.06;;;5.27;54.45
47556;BME280;33291;46.222;26.460;2023-12-22T12:56:54;93927.13;;;5.36;53.56
47556;BME280;33291;46.222;26.460;2023-12-22T12:59:20;93933.59;;;5.32;54.37
47556;BME280;33291;46.222;26.460;2023-12-22T13:01:47;93919.50;;;5.11;55.94
47556;BME280;33291;46.222;26.460;2023-12-22T13:04:13;93936.94;;;5.09;56.91